Williamson, Iowa
Current Conditions -  °F | °C
As of 2:35 AM on Sunday 26 Oct 2014 (Local Time) from KCNC Reporting Station
Clear Clear  
Wind Chill: 52°   Ceiling: Unl
Heat Index: 52°   Visibility: 10mi
Dew Point: 37°   Wind: 8mph
Humidity: 58%   Direction: 80°E
Pressure: 30.03"   Gusts: NA
Location:  41.09°N, 93.25°W
Report Text: KCNC 260735Z AUTO 08007KT 10SM CLR 11/03 A3003 RMK AO2
Loading
Personal Weather Stations






























Interactive Weather Map New forecast layout! Learn more

10-Day Weather Forecast

Advertisements
Track Severe Weather on mobile